Terminal Aerodrome Forecast
Issued by NWS

Home | Current Version | Previous Version | Text Only | Print | Product List | Glossary On
Versions: 1 2 3 4 5 6 7 8 9 10 11 12 13 14 15 16
000
FTUS43 KGRB 202325
TAFMTW
TAF
KMTW 202325Z 2100/2124 18007KT P6SM SCT250 WS010/20035KT
     FM211500 18011G20KT P6SM BKN150
     FM211900 17015G27KT P6SM SCT080=

USA.gov is the U.S. government's official web portal to all federal, state and local government web resources and services.